createdAt,value
2018-06-29T00:00:22.013Z,1.70
2018-06-29T00:02:51.716Z,1.70
2018-06-29T00:05:21.495Z,1.50
2018-06-29T00:07:51.006Z,1.40
2018-06-29T00:10:21.756Z,1.90
2018-06-29T00:12:51.787Z,1.50
2018-06-29T00:15:22.059Z,1.90
2018-06-29T00:17:51.711Z,1.80
2018-06-29T00:20:21.804Z,1.80
2018-06-29T00:22:51.417Z,1.70
2018-06-29T00:25:21.103Z,1.80
2018-06-29T00:27:50.512Z,1.70
2018-06-29T00:30:21.590Z,1.80
2018-06-29T00:32:51.450Z,1.70
2018-06-29T00:35:20.769Z,1.70
2018-06-29T00:37:50.270Z,1.80
2018-06-29T00:40:20.192Z,1.80
2018-06-29T00:42:49.798Z,1.70
2018-06-29T00:45:19.659Z,2.00
2018-06-29T00:47:49.716Z,1.87
2018-06-29T00:50:19.215Z,1.50
2018-06-29T00:52:48.763Z,1.87
2018-06-29T00:55:18.243Z,1.90
2018-06-29T00:57:47.838Z,2.00
2018-06-29T01:00:17.313Z,1.90
2018-06-29T01:02:47.195Z,2.10
2018-06-29T01:05:16.520Z,1.87
2018-06-29T01:07:46.348Z,2.00
2018-06-29T01:10:15.816Z,1.80
2018-06-29T01:12:45.269Z,1.60
2018-06-29T01:15:14.673Z,2.33
2018-06-29T01:17:44.707Z,2.20
2018-06-29T01:20:14.925Z,1.80
2018-06-29T01:22:44.620Z,1.80
2018-06-29T01:25:13.910Z,1.60
2018-06-29T01:27:43.440Z,1.80
2018-06-29T01:30:13.178Z,1.90
2018-06-29T01:32:42.775Z,2.17
2018-06-29T01:35:12.771Z,1.70
2018-06-29T01:37:42.455Z,1.90
2018-06-29T01:40:12.195Z,2.03
2018-06-29T01:42:42.176Z,1.90
2018-06-29T01:45:11.956Z,2.03
2018-06-29T01:47:42.235Z,2.13
2018-06-29T01:50:13.398Z,1.80
2018-06-29T01:52:42.930Z,1.70
2018-06-29T01:55:12.223Z,2.00
2018-06-29T01:57:41.752Z,2.00
2018-06-29T02:00:11.511Z,1.90
2018-06-29T02:02:41.435Z,2.00
2018-06-29T02:05:11.256Z,2.20
2018-06-29T02:07:40.659Z,1.80
2018-06-29T02:10:10.673Z,1.93
2018-06-29T02:12:40.059Z,1.93
2018-06-29T02:15:09.681Z,2.03
2018-06-29T02:17:39.230Z,1.93
2018-06-29T02:20:09.921Z,2.20
2018-06-29T02:22:39.757Z,2.10
2018-06-29T02:25:09.178Z,1.93
2018-06-29T02:27:39.232Z,1.77
2018-06-29T02:30:09.033Z,2.07
2018-06-29T02:32:38.833Z,1.90
2018-06-29T02:35:08.937Z,1.90
2018-06-29T02:37:38.591Z,1.90
2018-06-29T02:40:08.215Z,2.20
2018-06-29T02:42:38.422Z,2.17
2018-06-29T02:45:07.787Z,2.20
2018-06-29T02:47:37.255Z,2.00
2018-06-29T02:50:07.424Z,2.73
2018-06-29T02:52:36.977Z,2.30
2018-06-29T02:55:06.575Z,2.27
2018-06-29T02:57:36.356Z,2.20
2018-06-29T03:00:06.640Z,2.30
2018-06-29T03:02:36.384Z,2.23
2018-06-29T03:05:05.739Z,2.27
2018-06-29T03:07:35.037Z,2.50
2018-06-29T03:10:04.905Z,2.40
2018-06-29T03:12:34.689Z,2.50
2018-06-29T03:15:04.263Z,2.27
2018-06-29T03:17:33.666Z,2.40
2018-06-29T03:20:03.542Z,2.33
2018-06-29T03:22:33.233Z,2.73
2018-06-29T03:25:03.262Z,2.47
2018-06-29T03:27:32.906Z,2.50
2018-06-29T03:30:02.535Z,2.20
2018-06-29T03:32:32.165Z,2.30
2018-06-29T03:35:01.716Z,2.27
2018-06-29T03:37:31.315Z,2.70
2018-06-29T03:40:00.979Z,2.43
2018-06-29T03:42:30.557Z,2.60
2018-06-29T03:45:00.279Z,2.60
2018-06-29T03:47:29.821Z,2.43
2018-06-29T03:49:59.680Z,2.40
2018-06-29T03:52:29.378Z,2.60
2018-06-29T03:54:58.681Z,2.60
2018-06-29T03:57:28.192Z,3.30
2018-06-29T03:59:58.250Z,3.03
2018-06-29T04:02:28.343Z,2.90
2018-06-29T04:04:58.145Z,3.00
2018-06-29T04:07:29.339Z,2.70
2018-06-29T04:09:58.973Z,3.10
2018-06-29T04:12:28.417Z,2.80
2018-06-29T04:14:57.749Z,2.90
2018-06-29T04:17:27.363Z,2.90
2018-06-29T04:19:57.050Z,3.20
2018-06-29T04:22:26.463Z,3.37
2018-06-29T04:25:00.415Z,3.27
2018-06-29T04:27:29.956Z,3.17
2018-06-29T04:29:59.745Z,3.30
2018-06-29T04:32:29.208Z,3.30
2018-06-29T04:34:58.505Z,3.33
2018-06-29T04:37:28.219Z,3.30
2018-06-29T04:39:58.286Z,3.30
2018-06-29T04:42:28.808Z,3.10
2018-06-29T04:44:58.266Z,3.27
2018-06-29T04:47:28.629Z,3.73
2018-06-29T04:49:58.502Z,3.60
2018-06-29T04:52:28.871Z,3.63
2018-06-29T04:54:58.596Z,3.70
2018-06-29T04:57:32.296Z,4.00
2018-06-29T05:00:01.990Z,3.53
2018-06-29T05:02:31.359Z,3.40
2018-06-29T05:05:00.826Z,3.77
2018-06-29T05:07:30.468Z,3.97
2018-06-29T05:09:59.816Z,4.13
2018-06-29T05:12:29.500Z,4.00
2018-06-29T05:14:59.561Z,4.00
2018-06-29T05:17:29.188Z,3.53
2018-06-29T05:19:58.564Z,4.40
2018-06-29T05:22:28.163Z,4.27
2018-06-29T05:24:58.062Z,3.87
2018-06-29T05:27:28.007Z,4.23
2018-06-29T05:29:57.715Z,4.30
2018-06-29T05:32:27.077Z,4.07
2018-06-29T05:34:56.671Z,4.20
2018-06-29T05:37:26.241Z,4.27
2018-06-29T05:39:55.969Z,4.60
2018-06-29T05:42:25.472Z,4.43
2018-06-29T05:44:55.065Z,4.50
2018-06-29T05:47:25.826Z,3.80
2018-06-29T05:49:55.436Z,4.53
2018-06-29T05:52:25.149Z,4.30
2018-06-29T05:54:54.827Z,4.30
2018-06-29T05:57:28.423Z,4.40
2018-06-29T05:59:57.986Z,4.70
2018-06-29T06:02:27.436Z,4.20
2018-06-29T06:04:57.099Z,4.30
2018-06-29T06:07:26.382Z,4.47
2018-06-29T06:09:56.458Z,4.00
2018-06-29T06:12:25.835Z,4.13
2018-06-29T06:14:55.321Z,4.23
2018-06-29T06:17:24.695Z,3.77
2018-06-29T06:20:04.393Z,4.80
2018-06-29T06:22:34.149Z,4.13
2018-06-29T06:25:03.957Z,4.20
2018-06-29T06:27:33.551Z,4.10
2018-06-29T06:30:03.170Z,3.97
2018-06-29T06:32:33.166Z,4.20
2018-06-29T06:35:03.063Z,4.23
2018-06-29T06:37:32.576Z,4.43
2018-06-29T06:40:01.939Z,4.03
2018-06-29T06:42:31.312Z,4.33
2018-06-29T06:45:01.095Z,4.23
2018-06-29T06:47:31.182Z,3.57
2018-06-29T06:50:00.978Z,4.10
2018-06-29T06:52:30.848Z,3.73
2018-06-29T06:55:00.267Z,4.10
2018-06-29T06:57:29.608Z,3.70
2018-06-29T06:59:59.363Z,3.63
2018-06-29T07:02:28.802Z,3.47
2018-06-29T07:04:58.588Z,3.33
2018-06-29T07:07:27.919Z,3.50
2018-06-29T07:09:57.577Z,3.70
2018-06-29T07:12:26.901Z,3.47
2018-06-29T07:14:56.520Z,3.43
2018-06-29T07:17:25.839Z,4.10
2018-06-29T07:19:55.875Z,3.60
2018-06-29T07:22:25.719Z,2.93
2018-06-29T07:24:55.567Z,3.13
2018-06-29T07:27:25.326Z,2.50
2018-06-29T07:29:55.410Z,2.30
2018-06-29T07:32:25.250Z,2.50
2018-06-29T07:34:54.715Z,2.13
2018-06-29T07:37:24.015Z,2.60
2018-06-29T07:39:53.833Z,2.30
2018-06-29T07:42:23.507Z,2.30
2018-06-29T07:44:53.045Z,2.50
2018-06-29T07:47:26.977Z,2.83
2018-06-29T07:49:56.856Z,2.53
2018-06-29T07:52:26.310Z,2.67
2018-06-29T07:54:55.713Z,2.50
2018-06-29T07:57:25.479Z,2.50
2018-06-29T07:59:55.446Z,2.37
2018-06-29T08:02:25.077Z,2.10
2018-06-29T08:04:54.985Z,2.70
2018-06-29T08:07:25.134Z,2.13
2018-06-29T08:09:54.882Z,2.60
2018-06-29T08:12:24.753Z,2.10
2018-06-29T08:14:54.010Z,2.10
2018-06-29T08:17:23.364Z,2.10
2018-06-29T08:19:52.866Z,2.60
2018-06-29T08:22:22.344Z,2.50
2018-06-29T08:25:02.669Z,2.60
2018-06-29T08:27:32.356Z,2.50
2018-06-29T08:30:01.815Z,2.60
2018-06-29T08:32:31.219Z,2.07
2018-06-29T08:35:00.609Z,2.57
2018-06-29T08:37:30.543Z,2.80
2018-06-29T08:39:59.975Z,2.53
2018-06-29T08:42:29.760Z,2.50
2018-06-29T08:44:59.253Z,2.27
2018-06-29T08:47:28.612Z,2.40
2018-06-29T08:49:58.239Z,2.33
2018-06-29T08:52:27.914Z,2.40
2018-06-29T08:54:57.832Z,2.00
2018-06-29T08:57:27.929Z,2.57
2018-06-29T08:59:57.840Z,2.20
2018-06-29T09:02:27.161Z,2.10
2018-06-29T09:04:56.513Z,2.60
2018-06-29T09:07:26.771Z,2.40
2018-06-29T09:09:56.687Z,2.67
2018-06-29T09:12:26.096Z,5.83
2018-06-29T09:14:55.542Z,3.37
2018-06-29T09:17:25.228Z,2.17
2018-06-29T09:19:54.844Z,1.93
2018-06-29T09:22:24.472Z,1.90
2018-06-29T09:24:54.229Z,4.10
2018-06-29T09:27:23.912Z,2.50
2018-06-29T09:29:53.538Z,3.33
2018-06-29T09:32:23.267Z,2.03
2018-06-29T09:34:53.174Z,1.93
2018-06-29T09:37:22.613Z,2.10
2018-06-29T09:39:51.884Z,1.77
2018-06-29T09:42:21.203Z,2.00
2018-06-29T09:44:50.607Z,2.20
2018-06-29T09:47:20.108Z,2.00
2018-06-29T09:49:50.223Z,2.40
2018-06-29T09:52:20.084Z,1.80
2018-06-29T09:54:49.578Z,2.00
2018-06-29T09:57:19.511Z,2.20
2018-06-29T09:59:49.520Z,1.80
2018-06-29T10:02:19.108Z,1.90
2018-06-29T10:04:48.812Z,2.00
2018-06-29T10:07:21.908Z,1.73
2018-06-29T10:09:51.683Z,1.73
2018-06-29T10:12:22.215Z,1.87
2018-06-29T10:14:51.809Z,1.90
2018-06-29T10:17:21.110Z,2.33
2018-06-29T10:19:50.857Z,1.90
2018-06-29T10:22:20.520Z,1.60
2018-06-29T10:24:49.976Z,1.67
2018-06-29T10:27:19.376Z,1.70
2018-06-29T10:29:48.903Z,2.10
2018-06-29T10:32:18.777Z,1.97
2018-06-29T10:34:48.119Z,1.83
2018-06-29T10:37:17.362Z,1.73
2018-06-29T10:39:46.705Z,2.10
2018-06-29T10:42:16.251Z,1.60
2018-06-29T10:44:45.974Z,1.60
2018-06-29T10:47:16.280Z,1.50
2018-06-29T10:49:45.588Z,1.67
2018-06-29T10:52:15.506Z,1.80
2018-06-29T10:54:44.890Z,2.00
2018-06-29T10:57:14.741Z,1.63
2018-06-29T10:59:44.422Z,1.90
2018-06-29T11:02:14.142Z,1.97
2018-06-29T11:04:43.363Z,1.77
2018-06-29T11:07:13.181Z,2.00
2018-06-29T11:09:42.585Z,2.10
2018-06-29T11:12:11.858Z,1.70
2018-06-29T11:14:41.159Z,1.73
2018-06-29T11:17:10.883Z,1.70
2018-06-29T11:19:40.505Z,1.83
2018-06-29T11:22:09.975Z,2.10
2018-06-29T11:24:39.671Z,2.10
2018-06-29T11:27:09.011Z,2.00
2018-06-29T11:29:38.444Z,1.70
2018-06-29T11:32:07.732Z,2.03
2018-06-29T11:34:37.003Z,1.77
2018-06-29T11:37:06.539Z,2.10
2018-06-29T11:39:36.176Z,2.03
2018-06-29T11:42:06.289Z,1.93
2018-06-29T11:44:35.858Z,1.80
2018-06-29T11:47:05.251Z,1.80
2018-06-29T11:49:34.935Z,2.10
2018-06-29T11:52:05.077Z,2.00
2018-06-29T11:54:34.944Z,2.30
2018-06-29T11:57:04.751Z,1.63
2018-06-29T11:59:34.110Z,1.80
2018-06-29T12:02:03.482Z,1.90
2018-06-29T12:04:33.042Z,1.80
2018-06-29T12:07:02.877Z,2.27
2018-06-29T12:09:32.621Z,1.97
2018-06-29T12:12:02.128Z,2.00
2018-06-29T12:14:31.905Z,1.70
2018-06-29T12:17:02.609Z,1.97
2018-06-29T12:19:32.245Z,2.00
2018-06-29T12:22:02.033Z,1.80
2018-06-29T12:24:32.245Z,1.90
2018-06-29T12:27:01.814Z,1.90
2018-06-29T12:29:31.272Z,1.90
2018-06-29T12:32:01.522Z,1.63
2018-06-29T12:34:31.371Z,1.60
2018-06-29T12:37:01.088Z,1.70
2018-06-29T12:39:30.432Z,2.00
2018-06-29T12:42:00.303Z,1.80
2018-06-29T12:44:33.213Z,2.00
2018-06-29T12:47:03.342Z,1.70
2018-06-29T12:49:33.145Z,1.70
2018-06-29T12:52:02.449Z,2.17
2018-06-29T12:54:32.386Z,2.20
2018-06-29T12:57:02.114Z,2.03
2018-06-29T12:59:31.333Z,2.00
2018-06-29T13:02:00.949Z,2.20
2018-06-29T13:04:30.361Z,1.67
2018-06-29T13:06:59.955Z,2.13
2018-06-29T13:09:29.638Z,1.80
2018-06-29T13:11:59.292Z,1.90
2018-06-29T13:14:29.172Z,1.97
2018-06-29T13:16:58.539Z,1.77
2018-06-29T13:19:28.069Z,1.80
2018-06-29T13:21:57.680Z,1.70
2018-06-29T13:24:27.924Z,1.67
2018-06-29T13:26:57.447Z,1.73
2018-06-29T13:29:26.806Z,1.83
2018-06-29T13:31:56.243Z,1.77
2018-06-29T13:34:25.819Z,1.77
2018-06-29T13:36:55.840Z,1.80
2018-06-29T13:39:25.991Z,1.70
2018-06-29T13:41:55.769Z,1.97
2018-06-29T13:44:25.117Z,1.70
2018-06-29T13:46:54.623Z,1.90
2018-06-29T13:49:24.224Z,1.83
2018-06-29T13:51:57.306Z,1.97
2018-06-29T13:54:26.788Z,1.73
2018-06-29T13:56:56.113Z,1.60
2018-06-29T13:59:25.547Z,1.80
2018-06-29T14:01:55.015Z,1.80
2018-06-29T14:04:24.679Z,1.60
2018-06-29T14:06:59.661Z,2.10
2018-06-29T14:09:30.221Z,2.13
2018-06-29T14:11:59.734Z,1.90
2018-06-29T14:14:29.560Z,1.80
2018-06-29T14:16:58.912Z,2.00
2018-06-29T14:19:28.250Z,1.80
2018-06-29T14:21:57.663Z,1.80
2018-06-29T14:24:27.257Z,2.00
2018-06-29T14:26:56.709Z,2.10
2018-06-29T14:29:25.989Z,1.90
2018-06-29T14:31:56.131Z,2.07
2018-06-29T14:34:25.606Z,2.10
2018-06-29T14:36:59.054Z,1.90
2018-06-29T14:39:28.995Z,2.07
2018-06-29T14:42:02.068Z,2.00
2018-06-29T14:44:35.194Z,1.80
2018-06-29T14:47:05.377Z,1.70
2018-06-29T14:49:34.785Z,2.10
2018-06-29T14:52:04.093Z,2.00
2018-06-29T14:54:34.588Z,1.80
2018-06-29T14:57:03.994Z,2.50
2018-06-29T14:59:33.350Z,2.13
2018-06-29T15:02:02.969Z,1.77
2018-06-29T15:04:32.598Z,2.20
2018-06-29T15:07:02.246Z,2.20
2018-06-29T15:09:32.110Z,1.87
2018-06-29T15:12:02.126Z,2.13
2018-06-29T15:14:31.623Z,2.00
2018-06-29T15:17:01.417Z,1.70
2018-06-29T15:19:31.040Z,2.10
2018-06-29T15:22:00.316Z,2.10
2018-06-29T15:24:30.119Z,1.93
2018-06-29T15:26:59.800Z,2.00
2018-06-29T15:29:29.396Z,2.00
2018-06-29T15:31:58.853Z,2.00
2018-06-29T15:34:28.227Z,2.20
2018-06-29T15:36:57.728Z,2.10
2018-06-29T15:39:28.069Z,1.90
2018-06-29T15:41:57.383Z,1.83
2018-06-29T15:44:26.861Z,2.20
2018-06-29T15:46:56.990Z,2.00
2018-06-29T15:49:26.288Z,1.83
2018-06-29T15:51:55.833Z,2.00
2018-06-29T15:54:25.473Z,2.23
2018-06-29T15:56:55.109Z,2.20
2018-06-29T15:59:24.817Z,1.93
2018-06-29T16:01:54.298Z,1.80
2018-06-29T16:04:23.707Z,1.80
2018-06-29T16:06:53.166Z,1.90
2018-06-29T16:09:22.965Z,1.80
2018-06-29T16:11:53.243Z,2.03
2018-06-29T16:14:22.616Z,2.23
2018-06-29T16:16:51.871Z,2.00
2018-06-29T16:19:22.045Z,2.00
2018-06-29T16:21:51.771Z,2.33
2018-06-29T16:24:21.068Z,1.90
2018-06-29T16:26:51.191Z,2.20
2018-06-29T16:29:21.563Z,1.87
2018-06-29T16:31:50.872Z,2.13
2018-06-29T16:34:20.748Z,3.27
2018-06-29T16:36:50.087Z,2.10
2018-06-29T16:39:19.839Z,2.10
2018-06-29T16:41:49.286Z,2.03
2018-06-29T16:44:18.870Z,3.73
2018-06-29T16:46:48.467Z,3.03
2018-06-29T16:49:18.177Z,2.50
2018-06-29T16:51:47.490Z,2.27
2018-06-29T16:54:16.754Z,2.10
2018-06-29T16:56:46.180Z,2.30
2018-06-29T16:59:15.872Z,1.97
2018-06-29T17:01:45.155Z,2.03
2018-06-29T17:04:14.867Z,2.17
2018-06-29T17:06:44.588Z,1.90
2018-06-29T17:09:14.063Z,1.70
2018-06-29T17:11:43.590Z,2.00
2018-06-29T17:14:13.257Z,1.60
2018-06-29T17:16:42.625Z,1.73
2018-06-29T17:19:12.477Z,1.63
2018-06-29T17:21:42.598Z,1.80
2018-06-29T17:24:12.115Z,1.70
2018-06-29T17:26:41.396Z,1.90
2018-06-29T17:29:11.379Z,1.93
2018-06-29T17:31:41.306Z,2.00
2018-06-29T17:34:11.160Z,2.20
2018-06-29T17:36:40.739Z,1.83
2018-06-29T17:39:11.587Z,2.20
2018-06-29T17:41:44.284Z,1.87
2018-06-29T17:44:13.890Z,1.90
2018-06-29T17:46:43.246Z,2.07
2018-06-29T17:49:13.137Z,2.00
2018-06-29T17:51:42.622Z,1.80
2018-06-29T17:54:12.371Z,2.13
2018-06-29T17:56:42.494Z,2.03
2018-06-29T17:59:11.795Z,2.00
2018-06-29T18:01:41.492Z,1.80
2018-06-29T18:04:11.202Z,2.00
2018-06-29T18:06:40.644Z,2.17
2018-06-29T18:09:11.203Z,1.90
2018-06-29T18:11:40.840Z,1.97
2018-06-29T18:14:10.269Z,2.03
2018-06-29T18:16:39.822Z,2.23
2018-06-29T18:19:09.625Z,2.17
2018-06-29T18:21:39.253Z,2.10
2018-06-29T18:24:09.421Z,2.13
2018-06-29T18:26:39.457Z,2.40
2018-06-29T18:29:09.319Z,2.27
2018-06-29T18:31:39.453Z,2.40
2018-06-29T18:34:09.199Z,2.27
2018-06-29T18:36:39.668Z,2.40
2018-06-29T18:39:10.327Z,2.97
2018-06-29T18:41:39.657Z,2.70
2018-06-29T18:44:09.020Z,2.63
2018-06-29T18:46:38.338Z,2.63
2018-06-29T18:49:08.749Z,2.73
2018-06-29T18:51:38.750Z,2.93
2018-06-29T18:54:08.943Z,3.33
2018-06-29T18:56:38.703Z,3.57
2018-06-29T18:59:08.717Z,4.10
2018-06-29T19:01:38.501Z,3.60
2018-06-29T19:04:08.047Z,3.73
2018-06-29T19:06:37.529Z,4.10
2018-06-29T19:09:09.570Z,4.30
2018-06-29T19:11:39.717Z,4.63
2018-06-29T19:14:09.291Z,4.90
2018-06-29T19:16:38.956Z,5.60
2018-06-29T19:19:08.940Z,5.60
2018-06-29T19:21:38.819Z,5.67
2018-06-29T19:24:08.627Z,5.37
2018-06-29T19:26:38.127Z,5.00
2018-06-29T19:29:13.349Z,5.07
2018-06-29T19:31:42.635Z,5.40
2018-06-29T19:34:12.655Z,5.07
2018-06-29T19:36:42.478Z,4.77
2018-06-29T19:39:12.787Z,4.40
2018-06-29T19:41:42.654Z,5.07
2018-06-29T19:44:12.627Z,4.70
2018-06-29T19:46:42.456Z,4.60
2018-06-29T19:49:11.790Z,4.83
2018-06-29T19:51:41.112Z,4.83
2018-06-29T19:54:10.458Z,4.43
2018-06-29T19:56:40.035Z,4.63
2018-06-29T19:59:12.633Z,5.10
2018-06-29T20:01:42.061Z,4.30
2018-06-29T20:04:13.456Z,4.00
2018-06-29T20:06:43.053Z,4.70
2018-06-29T20:09:13.855Z,4.33
2018-06-29T20:11:46.574Z,4.30
2018-06-29T20:14:17.256Z,4.17
2018-06-29T20:16:47.165Z,3.80
2018-06-29T20:19:16.690Z,3.93
2018-06-29T20:21:49.872Z,3.90
2018-06-29T20:24:19.589Z,3.93
2018-06-29T20:26:49.418Z,4.20
2018-06-29T20:29:19.321Z,4.10
2018-06-29T20:31:49.082Z,3.90
2018-06-29T20:34:18.734Z,3.80
2018-06-29T20:36:49.155Z,4.33
2018-06-29T20:39:18.797Z,4.07
2018-06-29T20:41:48.666Z,3.90
2018-06-29T20:44:18.551Z,3.80
2018-06-29T20:46:48.294Z,3.70
2018-06-29T20:49:18.026Z,3.90
2018-06-29T20:51:47.715Z,3.83
2018-06-29T20:54:18.060Z,3.80
2018-06-29T20:56:51.624Z,3.93
2018-06-29T20:59:21.201Z,3.70
2018-06-29T21:01:50.940Z,3.53
2018-06-29T21:04:20.794Z,3.60
2018-06-29T21:06:55.702Z,3.70
2018-06-29T21:09:25.570Z,3.70
2018-06-29T21:11:54.975Z,3.73
2018-06-29T21:14:24.334Z,4.03
2018-06-29T21:16:57.290Z,4.17
2018-06-29T21:19:27.037Z,3.80
2018-06-29T21:22:00.051Z,4.47
2018-06-29T21:24:29.770Z,4.20
2018-06-29T21:26:59.193Z,4.30
2018-06-29T21:29:28.668Z,4.20
2018-06-29T21:31:58.459Z,4.60
2018-06-29T21:34:27.992Z,4.20
2018-06-29T21:36:57.900Z,4.67
2018-06-29T21:39:27.221Z,4.40
2018-06-29T21:41:56.740Z,4.37
2018-06-29T21:44:26.167Z,4.30
2018-06-29T21:46:55.717Z,4.70
2018-06-29T21:49:25.928Z,4.90
2018-06-29T21:51:55.679Z,4.63
2018-06-29T21:54:25.116Z,4.47
2018-06-29T21:56:54.949Z,4.53
2018-06-29T21:59:24.514Z,5.07
2018-06-29T22:01:54.333Z,4.60
2018-06-29T22:04:23.806Z,4.47
2018-06-29T22:06:53.084Z,5.20
2018-06-29T22:09:23.029Z,5.23
2018-06-29T22:11:53.075Z,5.33
2018-06-29T22:14:22.673Z,5.60
2018-06-29T22:16:52.005Z,5.70
2018-06-29T22:19:21.552Z,5.73
2018-06-29T22:21:51.358Z,5.70
2018-06-29T22:24:21.314Z,5.63
2018-06-29T22:26:51.045Z,5.70
2018-06-29T22:29:20.833Z,5.70
2018-06-29T22:31:50.161Z,5.97
2018-06-29T22:34:23.418Z,6.00
2018-06-29T22:36:52.822Z,5.87
2018-06-29T22:39:22.531Z,5.63
2018-06-29T22:41:51.837Z,5.63
2018-06-29T22:44:21.600Z,5.80
2018-06-29T22:46:51.345Z,5.90
2018-06-29T22:49:21.553Z,5.80
2018-06-29T22:51:51.114Z,5.83
2018-06-29T22:54:21.316Z,6.30
2018-06-29T22:56:51.273Z,5.50
2018-06-29T22:59:21.187Z,6.37
2018-06-29T23:01:51.146Z,6.07
2018-06-29T23:04:20.473Z,6.03
2018-06-29T23:06:50.183Z,6.00
2018-06-29T23:09:20.017Z,5.90
2018-06-29T23:11:49.698Z,5.80
2018-06-29T23:14:18.983Z,5.90
2018-06-29T23:16:48.954Z,6.50
2018-06-29T23:19:18.338Z,5.53
2018-06-29T23:21:47.963Z,6.10
2018-06-29T23:24:18.252Z,5.83
2018-06-29T23:26:47.965Z,5.97
2018-06-29T23:29:17.408Z,6.07
2018-06-29T23:31:47.489Z,6.47
2018-06-29T23:34:16.952Z,5.63
2018-06-29T23:36:46.296Z,5.57
2018-06-29T23:39:16.149Z,6.30
2018-06-29T23:41:46.041Z,6.20
2018-06-29T23:44:15.470Z,6.27
2018-06-29T23:46:45.416Z,6.00
2018-06-29T23:49:15.137Z,5.97
2018-06-29T23:51:44.672Z,6.00
2018-06-29T23:54:14.475Z,5.43
2018-06-29T23:56:44.079Z,6.33
2018-06-29T23:59:13.483Z,6.60
